Time;durP1;ratioP1;P1;durP2;ratioP2;P2;SDS_P1;SDS_P2;PMS_P1;PMS_P2;Temp;Humidity;BMP_temperature;BMP_pressure;BME280_temperature;BME280_humidity;BME280_pressure;Samples;Min_cycle;Max_cycle;Signal;HPM_P1;HPM_P2
2022/07/25 00:00:27;;;;;;;16.33;8.15;;;;;;;28.01;69.35;100356.06;4975375;28;20034;-91
2022/07/25 00:02:53;;;;;;;9.82;7.10;;;;;;;28.13;69.09;100357.41;4975724;28;20031;-90
2022/07/25 00:05:19;;;;;;;16.33;7.60;;;;;;;28.30;68.34;100351.56;4976248;28;20062;-90
2022/07/25 00:07:44;;;;;;;10.43;6.78;;;;;;;28.41;67.65;100341.38;4975518;28;20046;-86
2022/07/25 00:10:10;;;;;;;8.88;6.55;;;;;;;28.31;68.37;100341.47;4975666;28;20038;-92
2022/07/25 00:12:36;;;;;;;10.40;6.68;;;;;;;28.30;68.25;100337.13;4976628;28;20035;-92
2022/07/25 00:15:02;;;;;;;14.52;6.97;;;;;;;28.32;67.89;100348.56;4982806;28;20042;-84
2022/07/25 00:17:28;;;;;;;12.07;7.30;;;;;;;28.30;67.87;100350.75;4981018;28;20043;-93
2022/07/25 00:19:53;;;;;;;9.63;6.70;;;;;;;28.19;67.93;100344.56;4976055;28;20571;-91
2022/07/25 00:22:19;;;;;;;12.80;7.15;;;;;;;28.29;67.22;100343.66;4976740;28;20114;-89
2022/07/25 00:24:44;;;;;;;11.75;7.22;;;;;;;28.21;67.15;100337.72;4977083;28;20019;-86
2022/07/25 00:27:10;;;;;;;11.88;7.35;;;;;;;28.07;68.43;100344.09;4978801;28;20444;-89
2022/07/25 00:29:35;;;;;;;11.13;7.15;;;;;;;27.97;69.10;100355.84;4978917;28;20144;-85
2022/07/25 00:32:01;;;;;;;16.35;7.93;;;;;;;27.92;70.33;100350.41;4979367;28;20038;-86
2022/07/25 00:34:27;;;;;;;16.25;7.25;;;;;;;27.94;70.17;100347.41;4979717;28;20094;-91
2022/07/25 00:36:52;;;;;;;11.15;7.18;;;;;;;27.88;70.80;100353.94;4978308;28;20401;-89
2022/07/25 00:39:18;;;;;;;15.27;7.63;;;;;;;27.84;71.23;100342.78;4976321;28;20037;-84
2022/07/25 00:41:43;;;;;;;17.35;7.25;;;;;;;27.75;71.84;100347.22;4976569;28;20034;-87
2022/07/25 00:44:09;;;;;;;16.80;7.63;;;;;;;27.75;72.07;100339.03;4978306;28;20498;-88
2022/07/25 00:46:38;;;;;;;11.23;7.40;;;;;;;27.78;72.01;100343.91;4978706;28;20039;-88
2022/07/25 00:49:03;;;;;;;12.02;7.72;;;;;;;27.79;72.23;100344.75;4981063;28;20047;-85
2022/07/25 00:51:30;;;;;;;11.43;7.38;;;;;;;27.73;72.30;100346.69;4962631;28;20110;-87
2022/07/25 00:53:59;;;;;;;14.85;7.82;;;;;;;27.74;72.96;100340.16;4981199;28;20035;-90
2022/07/25 00:56:25;;;;;;;13.35;7.63;;;;;;;27.67;73.26;100347.81;4979637;28;20054;-86
2022/07/25 00:58:50;;;;;;;12.50;7.97;;;;;;;27.66;73.29;100348.88;4979513;28;20495;-85
2022/07/25 01:01:16;;;;;;;10.50;7.18;;;;;;;27.63;73.65;100335.84;4978856;28;20110;-84
2022/07/25 01:03:42;;;;;;;13.82;7.85;;;;;;;27.59;73.46;100338.28;4979215;28;20031;-84
2022/07/25 01:06:07;;;;;;;13.93;7.68;;;;;;;27.63;73.17;100335.84;4979178;28;20064;-87
2022/07/25 01:08:33;;;;;;;15.30;7.00;;;;;;;27.71;73.66;100333.34;4962717;28;20047;-88
2022/07/25 01:10:59;;;;;;;12.30;7.88;;;;;;;27.79;72.80;100328.41;4986872;28;20074;-82
2022/07/25 01:13:25;;;;;;;16.38;7.90;;;;;;;27.76;73.58;100334.41;4992873;28;20066;-84
2022/07/25 01:15:52;;;;;;;12.93;7.55;;;;;;;27.70;73.60;100330.91;5000792;28;20035;-86
2022/07/25 01:18:17;;;;;;;14.43;7.80;;;;;;;27.74;73.86;100330.06;5001105;28;20053;-86
2022/07/25 01:20:43;;;;;;;10.70;6.82;;;;;;;27.87;72.53;100334.09;4982574;28;20035;-89
2022/07/25 01:23:09;;;;;;;11.13;6.72;;;;;;;28.02;71.92;100328.53;4961132;28;20445;-90
2022/07/25 01:25:34;;;;;;;14.48;7.00;;;;;;;27.86;73.04;100328.91;4978735;28;20122;-87
2022/07/25 01:28:00;;;;;;;13.15;7.57;;;;;;;27.92;72.42;100338.69;4979316;28;20388;-87
2022/07/25 01:30:25;;;;;;;16.10;7.10;;;;;;;27.85;72.17;100341.72;4978708;28;20106;-87
2022/07/25 01:32:52;;;;;;;14.68;7.45;;;;;;;27.82;72.21;100334.09;4978467;28;20086;-89
2022/07/25 01:35:18;;;;;;;13.35;7.47;;;;;;;27.88;73.16;100332.16;4979357;28;20031;-86
2022/07/25 01:37:43;;;;;;;14.57;8.35;;;;;;;27.67;74.68;100336.91;4978996;28;20030;-89
2022/07/25 01:40:09;;;;;;;12.70;8.02;;;;;;;27.60;76.16;100342.66;4978148;28;20030;-84
2022/07/25 01:42:35;;;;;;;16.90;7.88;;;;;;;27.44;77.13;100343.81;4977808;28;20387;-88
2022/07/25 01:45:01;;;;;;;13.95;7.35;;;;;;;27.43;76.67;100341.31;4978483;28;20042;-83
2022/07/25 01:47:26;;;;;;;10.45;7.70;;;;;;;27.39;77.37;100345.69;4957229;28;20488;-85
2022/07/25 01:49:52;;;;;;;14.57;7.88;;;;;;;27.35;77.60;100345.41;4957518;29;20039;-89
2022/07/25 01:52:17;;;;;;;13.73;8.32;;;;;;;27.19;78.84;100341.94;4956638;29;20484;-86
2022/07/25 01:54:43;;;;;;;15.25;8.23;;;;;;;27.20;79.19;100338.13;4956330;29;20366;-86
2022/07/25 01:57:09;;;;;;;12.30;8.10;;;;;;;27.29;78.73;100340.28;4957674;29;20039;-86
2022/07/25 01:59:39;;;;;;;18.20;8.30;;;;;;;27.31;78.56;100343.53;4956622;28;20070;-87
2022/07/25 02:02:08;;;;;;;10.85;7.90;;;;;;;27.19;79.38;100336.50;4957958;29;20102;-87
2022/07/25 02:04:35;;;;;;;19.70;8.30;;;;;;;27.12;80.14;100333.25;4958204;29;20036;-83
2022/07/25 02:07:01;;;;;;;13.82;8.70;;;;;;;27.03;81.02;100332.19;4958457;29;20031;-88
2022/07/25 02:09:26;;;;;;;15.43;8.18;;;;;;;27.02;81.39;100335.97;4958126;29;20035;-86
2022/07/25 02:11:52;;;;;;;13.85;8.45;;;;;;;27.02;81.89;100335.97;4961798;29;20034;-86
2022/07/25 02:14:19;;;;;;;16.83;8.45;;;;;;;26.92;82.85;100335.16;4965697;29;20397;-82
2022/07/25 02:16:45;;;;;;;17.65;8.93;;;;;;;26.91;83.08;100328.13;4967239;29;20059;-81
2022/07/25 02:19:10;;;;;;;16.35;9.35;;;;;;;26.87;83.25;100336.00;4968345;29;20039;-83
2022/07/25 02:21:36;;;;;;;13.88;8.68;;;;;;;26.77;83.99;100327.81;4963883;29;20037;-84
2022/07/25 02:24:03;;;;;;;13.80;7.95;;;;;;;26.84;83.34;100333.84;4957425;29;20114;-85
2022/07/25 02:26:28;;;;;;;13.93;8.80;;;;;;;26.91;83.59;100333.56;4957546;29;20035;-88
2022/07/25 02:28:54;;;;;;;13.02;8.13;;;;;;;26.94;83.11;100327.56;4958288;29;20110;-88
2022/07/25 02:31:19;;;;;;;16.63;8.52;;;;;;;26.81;83.54;100328.09;4956455;29;20178;-88
2022/07/25 02:33:45;;;;;;;14.38;7.82;;;;;;;26.66;84.61;100321.56;4957911;29;20475;-83
2022/07/25 02:36:11;;;;;;;13.75;8.50;;;;;;;26.60;85.67;100324.56;4957321;29;20043;-83
2022/07/25 02:38:37;;;;;;;14.20;8.65;;;;;;;26.63;85.36;100321.31;4956045;29;20043;-87
2022/07/25 02:41:03;;;;;;;17.23;8.45;;;;;;;26.64;85.87;100315.59;4956967;29;20031;-87
2022/07/25 02:43:29;;;;;;;14.40;8.43;;;;;;;26.85;83.76;100319.13;4956766;29;20433;-90
2022/07/25 02:45:58;;;;;;;12.10;8.07;;;;;;;26.89;84.12;100325.66;4961754;28;20098;-88
2022/07/25 02:48:23;;;;;;;15.55;8.18;;;;;;;26.83;84.40;100326.75;4958822;28;20391;-85
2022/07/25 02:50:49;;;;;;;14.43;8.02;;;;;;;26.73;84.82;100313.97;4976073;28;20118;-85
2022/07/25 02:53:14;;;;;;;15.20;8.30;;;;;;;26.68;85.45;100316.66;4975912;28;20113;-86
2022/07/25 02:55:40;;;;;;;13.52;8.77;;;;;;;26.81;84.58;100322.66;4976015;28;20031;-87
2022/07/25 02:58:05;;;;;;;13.60;8.77;;;;;;;26.73;85.30;100321.31;4976019;28;20031;-85
2022/07/25 03:00:31;;;;;;;15.32;8.77;;;;;;;26.71;84.88;100326.22;4978838;28;20039;-85
2022/07/25 03:02:57;;;;;;;13.88;9.40;;;;;;;26.64;85.40;100326.47;4975726;28;20062;-87
2022/07/25 03:05:23;;;;;;;15.93;8.95;;;;;;;26.45;86.59;100330.03;4975648;28;20511;-86
2022/07/25 03:07:49;;;;;;;19.10;9.38;;;;;;;26.34;87.50;100323.75;4977430;28;20117;-86
2022/07/25 03:10:14;;;;;;;15.75;9.82;;;;;;;26.36;87.29;100324.28;4975327;28;20073;-86
2022/07/25 03:12:41;;;;;;;18.08;10.10;;;;;;;26.39;86.98;100328.34;4976034;28;20039;-86
2022/07/25 03:15:08;;;;;;;15.27;9.88;;;;;;;26.39;86.98;100325.63;4975312;28;20499;-85
2022/07/25 03:17:34;;;;;;;17.77;9.45;;;;;;;26.43;87.06;100326.72;4975258;28;20045;-86
2022/07/25 03:20:00;;;;;;;14.85;9.73;;;;;;;26.45;87.23;100321.88;4975607;28;20412;-85
2022/07/25 03:22:25;;;;;;;20.23;10.20;;;;;;;26.56;86.92;100327.00;4975374;28;20031;-87
2022/07/25 03:24:52;;;;;;;13.73;9.02;;;;;;;26.58;86.69;100322.09;4975576;28;20030;-88
2022/07/25 03:27:20;;;;;;;12.07;9.32;;;;;;;26.57;87.09;100327.84;4977960;28;20046;-86
2022/07/25 03:29:46;;;;;;;17.15;10.05;;;;;;;26.46;87.88;100326.19;4975324;28;20027;-85
2022/07/25 03:32:12;;;;;;;14.68;9.32;;;;;;;26.42;88.63;100311.50;4975187;28;20038;-87
2022/07/25 03:34:37;;;;;;;13.00;9.15;;;;;;;26.40;88.54;100319.13;4975342;28;20042;-84
2022/07/25 03:37:03;;;;;;;13.25;9.07;;;;;;;26.41;88.88;100324.31;4958293;28;20042;-87
2022/07/25 03:39:29;;;;;;;11.63;8.35;;;;;;;26.40;88.68;100328.09;4957765;28;20031;-86
2022/07/25 03:41:55;;;;;;;13.57;9.10;;;;;;;26.31;89.92;100327.00;4975086;28;20344;-86
2022/07/25 03:44:22;;;;;;;15.55;8.93;;;;;;;26.43;88.84;100326.72;4975123;28;20026;-88
2022/07/25 03:46:48;;;;;;;17.63;9.70;;;;;;;26.63;87.28;100324.03;4975177;28;20039;-85
2022/07/25 03:49:14;;;;;;;18.67;8.88;;;;;;;26.55;87.64;100330.00;4975324;28;20498;-86
2022/07/25 03:51:39;;;;;;;12.45;8.50;;;;;;;26.45;88.62;100340.88;4974780;28;20045;-85
2022/07/25 03:54:05;;;;;;;16.92;8.65;;;;;;;26.28;89.82;100333.00;4975473;28;20035;-85
2022/07/25 03:56:40;;;;;;;16.95;9.25;;;;;;;26.09;91.31;100338.06;4974924;28;20035;-85
2022/07/25 03:59:07;;;;;;;15.25;9.23;;;;;;;26.10;91.63;100334.28;4980646;28;20073;-83
2022/07/25 04:01:33;;;;;;;16.85;9.05;;;;;;;26.23;91.31;100337.56;4991944;28;20041;-86
2022/07/25 04:03:59;;;;;;;15.77;9.30;;;;;;;26.21;90.57;100340.59;4976516;28;20046;-89
2022/07/25 04:06:25;;;;;;;12.95;9.52;;;;;;;26.15;91.16;100338.91;4974847;28;20035;-88
2022/07/25 04:08:51;;;;;;;10.45;8.38;;;;;;;26.25;90.40;100336.22;4974963;28;20507;-84
2022/07/25 04:11:16;;;;;;;18.38;9.48;;;;;;;26.23;90.55;100343.00;4975869;28;20069;-84
2022/07/25 04:13:42;;;;;;;13.65;8.82;;;;;;;26.48;89.35;100348.50;4978278;28;20035;-87
2022/07/25 04:16:08;;;;;;;17.88;9.57;;;;;;;26.35;89.73;100346.31;4984576;28;20103;-83
2022/07/25 04:18:33;;;;;;;18.98;9.70;;;;;;;26.15;91.12;100345.13;4992868;28;20019;-82
2022/07/25 04:20:59;;;;;;;17.05;9.25;;;;;;;26.18;90.97;100352.78;4997888;28;20041;-85
2022/07/25 04:23:27;;;;;;;19.38;10.00;;;;;;;26.16;90.96;100344.09;4984650;28;20027;-85
2022/07/25 04:25:53;;;;;;;20.45;9.68;;;;;;;26.10;91.24;100353.28;4982377;28;20038;-87
2022/07/25 04:28:19;;;;;;;23.73;10.25;;;;;;;26.11;92.11;100357.66;4978366;28;20035;-88
2022/07/25 04:30:44;;;;;;;15.95;9.70;;;;;;;26.24;90.71;100355.53;4961328;28;20413;-89
2022/07/25 04:33:11;;;;;;;12.85;8.98;;;;;;;26.33;90.20;100352.00;4978063;28;20026;-85
2022/07/25 04:35:37;;;;;;;19.48;10.10;;;;;;;26.40;89.64;100354.47;4978371;28;20030;-86
2022/07/25 04:38:03;;;;;;;14.20;9.20;;;;;;;26.23;90.03;100354.69;4978170;28;20035;-87
2022/07/25 04:40:28;;;;;;;17.63;9.70;;;;;;;26.16;90.64;100364.97;4978289;28;20480;-88
2022/07/25 04:42:54;;;;;;;13.77;9.60;;;;;;;26.18;90.05;100363.66;4978376;28;20119;-84
2022/07/25 04:45:20;;;;;;;15.27;9.50;;;;;;;26.07;91.35;100366.59;4978226;28;20046;-85
2022/07/25 04:47:45;;;;;;;18.63;9.55;;;;;;;26.12;90.39;100364.69;4978265;28;20034;-84
2022/07/25 04:50:11;;;;;;;17.33;9.50;;;;;;;26.34;89.01;100364.50;4978035;28;20122;-85
2022/07/25 04:52:37;;;;;;;15.77;9.50;;;;;;;26.33;89.88;100362.06;4978037;28;20496;-88
2022/07/25 04:55:03;;;;;;;14.18;9.52;;;;;;;26.48;88.24;100362.09;4977858;28;20070;-87
2022/07/25 04:57:29;;;;;;;20.60;9.65;;;;;;;26.48;88.55;100364.81;4978048;28;20443;-88
2022/07/25 04:59:55;;;;;;;13.05;9.68;;;;;;;26.67;87.33;100365.91;4978279;28;20068;-84
2022/07/25 05:02:20;;;;;;;18.88;9.52;;;;;;;26.67;86.68;100366.72;4977959;28;20038;-87
2022/07/25 05:04:46;;;;;;;19.15;10.38;;;;;;;26.63;86.97;100353.94;4978234;28;20042;-86
2022/07/25 05:07:12;;;;;;;13.48;9.65;;;;;;;26.79;87.46;100361.00;4978133;28;20251;-87
2022/07/25 05:09:37;;;;;;;18.75;9.77;;;;;;;26.75;86.95;100357.19;4961827;28;20449;-88
2022/07/25 05:12:03;;;;;;;23.30;9.27;;;;;;;26.89;86.03;100362.91;4977693;28;20047;-87
2022/07/25 05:14:28;;;;;;;19.52;10.63;;;;;;;26.84;86.76;100358.31;4977572;28;20073;-84
2022/07/25 05:16:54;;;;;;;23.67;9.80;;;;;;;26.87;86.21;100359.66;4977723;28;20499;-87
2022/07/25 05:19:20;;;;;;;17.75;9.73;;;;;;;26.87;86.26;100346.88;4960451;28;20050;-88
2022/07/25 05:21:45;;;;;;;19.35;9.88;;;;;;;26.98;85.92;100351.22;4977258;28;20038;-88
2022/07/25 05:24:11;;;;;;;17.80;10.02;;;;;;;27.23;84.24;100355.81;4977547;28;20042;-85
2022/07/25 05:26:36;;;;;;;13.20;9.75;;;;;;;27.23;83.86;100364.78;4977385;28;20113;-88
2022/07/25 05:29:02;;;;;;;17.63;10.05;;;;;;;27.41;82.47;100366.09;4977161;28;20118;-90
2022/07/25 05:31:28;;;;;;;19.85;10.48;;;;;;;27.55;81.63;100366.34;4977100;28;20468;-88
2022/07/25 05:33:53;;;;;;;22.23;10.00;;;;;;;27.64;81.43;100364.72;4976527;28;20085;-90
2022/07/25 05:36:19;;;;;;;20.20;10.85;;;;;;;27.70;80.56;100369.03;4977304;28;20042;-87
2022/07/25 05:38:44;;;;;;;21.67;10.75;;;;;;;27.87;79.93;100365.97;4961444;28;20031;-83
2022/07/25 05:41:10;;;;;;;26.25;10.60;;;;;;;28.02;78.59;100371.31;4979369;28;20169;-91
2022/07/25 05:43:35;;;;;;;16.63;10.15;;;;;;;28.11;78.85;100373.22;4962329;28;20488;-88
2022/07/25 05:46:03;;;;;;;18.10;9.65;;;;;;;28.23;77.93;100372.88;4979180;28;20138;-90
2022/07/25 05:48:29;;;;;;;23.88;10.48;;;;;;;28.26;77.74;100368.78;4979195;28;20058;-88
2022/07/25 05:50:54;;;;;;;23.95;9.80;;;;;;;28.47;76.04;100370.28;4960666;28;20073;-91
2022/07/25 05:53:20;;;;;;;16.48;9.45;;;;;;;28.67;74.96;100362.75;4960185;28;20503;-87
2022/07/25 05:55:45;;;;;;;15.93;9.82;;;;;;;28.77;73.07;100372.78;4978066;28;20451;-89
2022/07/25 05:58:11;;;;;;;14.25;8.65;;;;;;;28.92;72.41;100363.66;4977404;28;20038;-90
2022/07/25 06:00:38;;;;;;;13.63;9.00;;;;;;;29.12;70.73;100369.72;4959670;28;20046;-89
2022/07/25 06:03:03;;;;;;;16.08;8.95;;;;;;;29.32;69.92;100370.66;4977763;28;20035;-89
2022/07/25 06:05:29;;;;;;;13.02;8.35;;;;;;;29.50;68.05;100378.91;4977261;28;20042;-91
2022/07/25 06:07:54;;;;;;;15.80;8.27;;;;;;;29.69;67.76;100373.50;4982335;28;20027;-89
2022/07/25 06:10:21;;;;;;;10.63;7.72;;;;;;;30.11;66.29;100376.25;4982350;28;20035;-91
2022/07/25 06:12:46;;;;;;;20.65;8.95;;;;;;;30.38;63.82;100380.25;4989142;28;20073;-91
2022/07/25 06:15:12;;;;;;;14.18;8.68;;;;;;;30.43;63.85;100378.25;4992649;28;20042;-88
2022/07/25 06:17:37;;;;;;;15.02;8.95;;;;;;;30.38;63.14;100374.78;4979185;28;20019;-83
2022/07/25 06:20:03;;;;;;;13.25;8.38;;;;;;;30.57;62.63;100375.59;4996240;28;20038;-86
2022/07/25 06:22:29;;;;;;;18.77;7.65;;;;;;;31.10;59.95;100365.94;4993959;28;20034;-88
2022/07/25 06:24:55;;;;;;;16.83;8.45;;;;;;;31.22;59.06;100377.22;4968292;28;20038;-90
2022/07/25 06:27:20;;;;;;;27.77;8.38;;;;;;;31.56;58.18;100378.78;4983008;28;20043;-89
2022/07/25 06:29:46;;;;;;;15.10;8.48;;;;;;;31.49;57.86;100370.13;4979608;28;20045;-92
2022/07/25 06:32:11;;;;;;;20.25;7.90;;;;;;;31.90;55.88;100376.44;4943676;28;20051;-85
2022/07/25 06:34:37;;;;;;;14.15;7.40;;;;;;;31.81;57.42;100375.56;4960341;28;20439;-90
2022/07/25 06:37:03;;;;;;;14.45;7.53;;;;;;;31.75;57.07;100372.09;4980985;28;20054;-86
2022/07/25 06:39:29;;;;;;;14.15;7.75;;;;;;;31.88;56.48;100367.72;4982545;28;20062;-89
2022/07/25 06:41:54;;;;;;;17.60;7.38;;;;;;;31.99;56.12;100371.03;4979168;28;20046;-91
2022/07/25 06:44:20;;;;;;;18.35;7.70;;;;;;;32.35;55.10;100373.84;4978079;28;20031;-86
2022/07/25 06:46:46;;;;;;;17.60;7.60;;;;;;;32.30;55.51;100371.19;4958808;28;20429;-90
2022/07/25 06:49:11;;;;;;;22.40;8.60;;;;;;;32.16;55.68;100372.06;4976181;28;20046;-88
2022/07/25 06:51:37;;;;;;;12.98;8.00;;;;;;;32.08;56.17;100375.53;4976126;28;20027;-89
2022/07/25 06:54:02;;;;;;;15.77;7.80;;;;;;;32.15;55.32;100370.41;4975588;28;20042;-86
2022/07/25 06:56:30;;;;;;;13.73;8.48;;;;;;;32.38;54.54;100374.03;4958258;28;20035;-87
2022/07/25 06:58:56;;;;;;;15.13;8.70;;;;;;;32.28;54.83;100372.31;4975564;28;20066;-89
2022/07/25 07:01:22;;;;;;;19.92;8.85;;;;;;;32.15;55.41;100364.94;4975880;28;20493;-88
2022/07/25 07:03:48;;;;;;;14.75;9.13;;;;;;;32.30;54.83;100371.19;4975291;28;20047;-87
2022/07/25 07:06:13;;;;;;;12.57;8.52;;;;;;;32.40;54.58;100376.44;4957700;28;20380;-84
2022/07/25 07:08:39;;;;;;;14.35;8.30;;;;;;;32.71;53.67;100371.88;4975199;28;20042;-85
2022/07/25 07:11:06;;;;;;;17.70;9.75;;;;;;;32.81;53.34;100377.13;4975632;28;20483;-85
2022/07/25 07:13:32;;;;;;;15.10;9.68;;;;;;;32.64;53.70;100377.00;4975496;28;20039;-89
2022/07/25 07:15:57;;;;;;;11.80;8.70;;;;;;;32.98;52.80;100368.97;4975699;28;20047;-89
2022/07/25 07:18:23;;;;;;;20.48;9.48;;;;;;;33.14;53.00;100364.75;4959233;28;20039;-86
2022/07/25 07:20:48;;;;;;;23.10;9.75;;;;;;;33.52;51.16;100369.75;4967489;28;20042;-85
2022/07/25 07:23:14;;;;;;;19.38;10.52;;;;;;;33.32;51.30;100370.31;4998316;28;20043;-88
2022/07/25 07:25:44;;;;;;;17.58;9.30;;;;;;;34.08;49.19;100375.25;4995740;28;20043;-88
2022/07/25 07:28:10;;;;;;;17.00;8.63;;;;;;;35.27;45.67;100365.28;4998483;28;20035;-90
2022/07/25 07:30:36;;;;;;;28.80;10.93;;;;;;;35.41;45.21;100365.06;4983516;28;20050;-91
2022/07/25 07:33:02;;;;;;;18.13;9.55;;;;;;;35.45;44.42;100371.53;4984413;28;20038;-91
2022/07/25 07:35:27;;;;;;;17.83;9.65;;;;;;;34.61;46.69;100357.66;4981417;28;20035;-93
2022/07/25 07:37:53;;;;;;;18.65;11.10;;;;;;;34.11;47.73;100363.63;4988560;28;20042;-91
2022/07/25 07:41:00;;;;;;;26.25;10.57;;;;;;;34.56;46.82;100360.56;4991645;28;20029;-89
2022/07/25 07:43:29;;;;;;;19.80;10.35;;;;;;;34.48;46.38;100362.16;5005695;23;20043;-90
2022/07/25 07:46:01;;;;;;;19.42;10.82;;;;;;;34.31;47.55;100358.59;4974076;28;20046;-88
2022/07/25 07:48:29;;;;;;;23.35;10.02;;;;;;;34.80;45.94;100355.38;4983871;28;20039;-92
2022/07/25 07:51:01;;;;;;;16.40;10.35;;;;;;;35.02;44.92;100354.31;4934778;28;20109;-93
2022/07/25 07:56:19;;;;;;;28.38;10.30;;;;;;;34.97;45.58;100355.31;4988617;28;20035;-89
2022/07/25 07:58:45;;;;;;;21.45;11.07;;;;;;;35.00;44.33;100357.41;4950047;28;20500;-89
2022/07/25 08:01:14;;;;;;;24.67;10.50;;;;;;;35.26;43.64;100355.41;4985678;28;20031;-92
2022/07/25 08:03:39;;;;;;;16.45;10.15;;;;;;;35.47;43.92;100357.41;4982448;28;20031;-91
2022/07/25 08:06:05;;;;;;;18.48;9.60;;;;;;;35.75;43.13;100361.34;4976858;28;20072;-90
2022/07/25 08:08:34;;;;;;;25.75;10.95;;;;;;;35.17;43.63;100353.81;4963771;28;20031;-90
2022/07/25 08:10:59;;;;;;;18.02;10.27;;;;;;;35.11;43.90;100357.88;4976236;28;20507;-91
2022/07/25 08:13:36;;;;;;;23.45;11.60;;;;;;;34.73;43.90;100349.56;4977230;28;20043;-90
2022/07/25 08:16:03;;;;;;;19.75;10.02;;;;;;;35.19;43.54;100352.34;4977858;28;20155;-91
2022/07/25 08:18:31;;;;;;;18.38;9.73;;;;;;;35.48;42.51;100348.00;4976203;28;20459;-92
2022/07/25 08:20:59;;;;;;;19.25;9.27;;;;;;;35.66;41.92;100352.31;4958884;28;20034;-93
2022/07/25 08:23:26;;;;;;;22.25;11.88;;;;;;;35.62;41.66;100351.38;4961378;28;20448;-91
2022/07/25 08:25:52;;;;;;;28.15;11.27;;;;;;;35.34;41.84;100348.22;4985602;28;20042;-92
2022/07/25 08:28:50;;;;;;;20.10;11.13;;;;;;;34.82;43.59;100336.56;4973830;28;20039;-91
2022/07/25 08:31:15;;;;;;;21.08;8.80;;;;;;;35.36;42.49;100339.66;4996119;28;20039;-88
2022/07/25 08:33:41;;;;;;;19.77;12.05;;;;;;;35.43;42.46;100334.44;4994189;28;20030;-91
2022/07/25 08:36:09;;;;;;;19.90;11.90;;;;;;;35.81;41.60;100340.69;4992010;28;20039;-91
2022/07/25 08:38:44;;;;;;;24.52;11.77;;;;;;;35.23;43.09;100339.50;4971344;28;20055;-89
2022/07/25 08:41:10;;;;;;;25.75;13.38;;;;;;;35.62;42.71;100346.66;4990281;28;20121;-91
2022/07/25 08:43:38;;;;;;;19.60;13.23;;;;;;;36.17;42.09;100342.91;4990386;28;20658;-92
2022/07/25 08:46:07;;;;;;;24.70;12.13;;;;;;;36.90;40.16;100343.19;4957144;28;20050;-94
2022/07/25 08:48:37;;;;;;;17.42;10.40;;;;;;;37.51;38.46;100333.88;4973234;28;20031;-91
2022/07/25 08:51:11;;;;;;;20.90;13.02;;;;;;;37.32;39.14;100335.59;4991155;28;20047;-92
2022/07/25 08:53:47;;;;;;;20.90;12.40;;;;;;;36.83;39.36;100334.66;4992082;28;20066;-88
2022/07/25 08:56:15;;;;;;;21.10;10.10;;;;;;;37.01;39.47;100333.34;4941225;28;20058;-90
2022/07/25 08:59:10;;;;;;;21.42;14.07;;;;;;;37.29;38.51;100335.09;4993464;28;20066;-90
2022/07/25 09:01:41;;;;;;;20.20;13.18;;;;;;;36.87;39.01;100330.88;4991165;28;20056;-92
2022/07/25 09:04:08;;;;;;;20.63;9.45;;;;;;;36.91;39.09;100329.06;4976001;28;20030;-89
2022/07/25 09:06:36;;;;;;;21.77;9.63;;;;;;;37.19;38.64;100327.25;4976940;28;20057;-92
2022/07/25 09:09:33;;;;;;;23.88;11.13;;;;;;;36.92;38.88;100333.44;4996226;28;20120;-88
2022/07/25 09:12:15;;;;;;;16.70;8.70;;;;;;;37.35;38.19;100332.13;4995081;28;20047;-93
2022/07/25 09:14:46;;;;;;;11.52;7.63;;;;;;;38.16;36.83;100329.97;4989219;23;20093;-88
2022/07/25 09:17:14;;;;;;;;;;;;;;;37.88;36.22;100340.19;4999430;28;20031;-90
2022/07/25 09:19:52;;;;;;;15.73;7.88;;;;;;;38.02;35.67;100332.31;4999705;28;19902;-88
2022/07/25 09:22:41;;;;;;;14.75;7.97;;;;;;;37.91;35.52;100328.41;4998973;28;20106;-90
2022/07/25 09:25:36;;;;;;;18.65;7.93;;;;;;;37.63;35.40;100322.78;4998820;28;20413;-86
2022/07/25 09:44:58;;;;;;;15.45;6.10;;;;;;;38.80;32.64;100320.69;4526321;23;20139;-86
2022/07/25 09:48:20;;;;;;;18.02;9.55;;;;;;;38.26;34.51;100310.09;4968608;28;20042;-87
2022/07/25 09:51:10;;;;;;;14.27;8.63;;;;;;;38.11;34.97;100308.09;4940067;28;20078;-86
2022/07/25 09:53:42;;;;;;;20.05;8.85;;;;;;;38.15;34.76;100308.97;4911132;29;20099;-86
2022/07/25 09:56:21;;;;;;;15.90;9.32;;;;;;;37.91;34.40;100309.03;4941777;28;20100;-86
2022/07/25 09:59:24;;;;;;;15.07;7.78;;;;;;;38.35;34.02;100298.84;5336196;23;20042;-86
2022/07/25 10:08:16;;;;;;;18.13;6.72;;;;;;;38.32;33.42;100310.63;3887843;22;20046;-86
2022/07/25 10:31:02;;;;;;;16.67;5.95;;;;;;;38.24;30.40;100281.16;5001267;28;20037;-85
2022/07/25 10:34:13;;;;;;;17.52;5.18;;;;;;;37.97;29.53;100277.22;4988050;28;20074;-84
2022/07/25 10:45:01;;;;;;;13.77;5.25;;;;;;;38.00;29.26;100265.44;4989303;28;20050;-91
2022/07/25 10:47:27;;;;;;;12.77;5.43;;;;;;;37.86;29.10;100253.91;4990864;28;20035;-87
2022/07/25 10:50:05;;;;;;;11.57;5.28;;;;;;;38.58;28.73;100254.81;4970318;28;20043;-91
2022/07/25 10:52:31;;;;;;;12.07;4.60;;;;;;;39.04;27.13;100251.28;4966791;28;20066;-92
2022/07/25 10:54:59;;;;;;;12.05;4.70;;;;;;;39.12;27.40;100257.78;4985756;28;20038;-90
2022/07/25 10:57:26;;;;;;;11.45;4.47;;;;;;;39.49;26.87;100252.72;4981818;28;20393;-89
2022/07/25 10:59:52;;;;;;;11.48;4.75;;;;;;;39.79;26.41;100256.59;4980985;28;20439;-90
2022/07/25 11:02:18;;;;;;;10.93;4.45;;;;;;;39.91;25.90;100252.88;4980512;28;20117;-88
2022/07/25 11:05:01;;;;;;;8.82;4.32;;;;;;;40.29;25.73;100247.31;4981719;28;20035;-88
2022/07/25 11:07:34;;;;;;;10.80;5.00;;;;;;;40.00;25.07;100251.50;4984104;28;20189;-91
2022/07/25 11:10:03;;;;;;;11.30;5.15;;;;;;;40.16;25.23;100249.47;4984510;28;20046;-91
2022/07/25 11:12:30;;;;;;;8.13;4.30;;;;;;;40.33;25.28;100241.81;4979663;28;20089;-90
2022/07/25 11:15:01;;;;;;;9.10;4.30;;;;;;;40.30;25.58;100237.81;4980073;28;20050;-91
2022/07/25 11:17:28;;;;;;;16.33;4.38;;;;;;;40.25;24.98;100236.13;4981676;28;20486;-92
2022/07/25 11:20:03;;;;;;;14.50;4.68;;;;;;;40.00;24.47;100234.84;4976187;28;20118;-89
2022/07/25 11:22:30;;;;;;;10.57;4.80;;;;;;;39.61;24.75;100238.75;4979097;28;20062;-92
2022/07/25 11:24:56;;;;;;;14.68;4.28;;;;;;;39.44;25.10;100228.06;4982898;28;20059;-87
2022/07/25 11:27:22;;;;;;;6.03;4.00;;;;;;;38.82;25.76;100223.38;4974100;28;20062;-90
2022/07/25 11:29:51;;;;;;;15.25;4.65;;;;;;;38.61;25.86;100223.63;4964000;29;20144;-90
2022/07/25 11:32:17;;;;;;;9.32;4.82;;;;;;;38.00;26.78;100210.09;4969381;28;20035;-93
2022/07/25 11:34:51;;;;;;;8.90;4.82;;;;;;;38.54;26.03;100207.63;4964151;29;20067;-90
2022/07/25 11:37:18;;;;;;;10.25;4.57;;;;;;;38.78;25.61;100198.34;4970403;28;20492;-91
2022/07/25 11:39:45;;;;;;;7.70;4.55;;;;;;;38.47;26.18;100201.91;4977703;28;20380;-92
2022/07/25 11:42:31;;;;;;;10.50;4.80;;;;;;;38.11;26.65;100194.59;4977111;28;20035;-91
2022/07/25 11:45:00;;;;;;;7.85;4.32;;;;;;;37.92;26.98;100197.19;4980838;28;20047;-93
2022/07/25 11:47:31;;;;;;;9.02;4.53;;;;;;;38.12;26.51;100195.38;4989715;28;20111;-94
2022/07/25 11:50:00;;;;;;;10.55;4.60;;;;;;;38.01;27.37;100184.03;4974283;28;20046;-92
2022/07/25 11:52:32;;;;;;;8.55;4.63;;;;;;;37.80;27.34;100183.41;4976243;28;20038;-93
2022/07/25 11:55:16;;;;;;;13.35;4.80;;;;;;;37.47;27.70;100180.84;4988247;28;20496;-90
2022/07/25 11:57:45;;;;;;;10.48;4.70;;;;;;;37.24;27.84;100172.25;4989012;22;20199;-92
2022/07/25 12:00:30;;;;;;;9.75;4.57;;;;;;;36.88;28.96;100163.97;4969757;28;20126;-95
2022/07/25 12:03:07;;;;;;;13.63;4.70;;;;;;;36.75;29.06;100152.13;4974507;28;20065;-92
2022/07/25 12:05:33;;;;;;;9.48;4.53;;;;;;;36.90;28.83;100156.13;4947369;28;20035;-94
2022/07/25 12:08:10;;;;;;;5.88;4.43;;;;;;;36.99;29.14;100153.25;4985467;28;20495;-93
2022/07/25 12:10:37;;;;;;;15.50;5.30;;;;;;;36.83;28.98;100144.03;4956657;28;20050;-93
2022/07/25 12:13:05;;;;;;;10.95;4.85;;;;;;;36.88;29.03;100141.06;4959940;28;20041;-91
2022/07/25 12:15:37;;;;;;;10.65;4.93;;;;;;;36.84;28.71;100132.66;4957542;28;20035;-91